Flight Track Log - Related Links

Times and Time Zones

All times are in EST time to prevent confusion due to time zone crossing. See the N403DM flight status page for this flight to view local times or setup timezone preferences in your user account.

Time Position Orientation Groundspeed Altitude Reporting Facility
EST Latitude Longitude Course Direction KTS MPH feet Rate Location/Type
Sun 03:23:58 PM 33.6483 -96.5014 50° Northeast 137 158 3,000  Level Fort Worth Center
Sun 03:25:01 PM 33.6744 -96.4650 49° Northeast 144 166 3,900 864 Climbing Fort Worth Center
Sun 03:26:03 PM 33.7008 -96.4253 51° Northeast 143 165 4,800 871 Climbing Fort Worth Center
Sun 03:27:05 PM 33.7283 -96.3875 49° Northeast 149 171 5,700 871 Climbing Fort Worth Center
Sun 03:28:07 PM 33.7561 -96.3450 52° Northeast 150 173 6,600 677 Climbing Fort Worth Center
Sun 03:29:00 PM 33.7711 -96.3741 50° Northeast  Level Estimated
Sun 03:29:09 PM 33.7842 -96.3075 48° Northeast 154 177 7,100  Level Fort Worth Center
Sun 03:30:11 PM 33.8178 -96.2569 51° Northeast 177 204 7,100  Level Fort Worth Center
Sun 03:31:13 PM 33.8486 -96.2119 50° Northeast 177 204 7,100  Level Fort Worth Center
Sun 03:32:15 PM 33.8800 -96.1683 49° Northeast 174 200 7,100  Level Fort Worth Center
Sun 03:33:17 PM 33.9114 -96.1222 51° Northeast 176 203 7,100  Level Fort Worth Center
Sun 03:34:19 PM 33.9408 -96.0778 51° Northeast 173 199 7,100  Level Fort Worth Center
Sun 03:35:21 PM 33.9728 -96.0331 49° Northeast 174 200 7,100  Level Fort Worth Center
Sun 03:36:23 PM 34.0100 -95.9800 50° Northeast 174 200 7,100  Level Fort Worth Center
Sun 03:37:26 PM 34.0408 -95.9333 51° Northeast 177 204 7,100  Level Fort Worth Center
Sun 03:38:28 PM 34.0725 -95.8883 50° Northeast 177 204 7,100  Level Fort Worth Center
Sun 03:39:30 PM 34.1044 -95.8417 50° Northeast 173 199 7,100  Level Fort Worth Center
Sun 03:40:32 PM 34.1347 -95.7969 51° Northeast 173 199 7,100  Level Fort Worth Center
Sun 03:41:34 PM 34.1650 -95.7531 50° Northeast 170 196 7,100  Level Fort Worth Center
Sun 03:42:36 PM 34.1942 -95.7106 50° Northeast 167 192 7,100  Level Fort Worth Center
Sun 03:43:38 PM 34.2231 -95.6664 52° Northeast 167 192 7,100  Level Fort Worth Center
Sun 03:44:40 PM 34.2603 -95.6133 50° Northeast 171 197 7,100  Level Fort Worth Center
Sun 03:45:42 PM 34.2875 -95.5728 51° Northeast 172 198 7,100  Level Fort Worth Center
Sun 03:46:44 PM 34.3267 -95.5175 49° Northeast 177 204 7,100  Level Fort Worth Center
Sun 03:47:46 PM 34.3569 -95.4739 50° Northeast 175 201 7,100  Level Fort Worth Center
Sun 03:48:48 PM 34.3869 -95.4300 50° Northeast 173 199 7,100  Level Fort Worth Center
Sun 03:49:50 PM 34.4169 -95.3842 52° Northeast 172 198 7,100  Level Fort Worth Center
Sun 03:50:53 PM 34.4475 -95.3381 51° Northeast 173 199 7,100  Level Fort Worth Center
Sun 03:51:55 PM 34.4789 -95.2919 50° Northeast 174 200 7,100  Level Fort Worth Center
Sun 03:52:57 PM 34.5164 -95.2364 51° Northeast 176 203 7,100  Level Fort Worth Center
Sun 03:53:59 PM 34.5475 -95.1903 51° Northeast 177 204 7,100  Level Fort Worth Center
Sun 03:55:01 PM 34.5794 -95.1428 51° Northeast 179 206 7,100  Level Fort Worth Center
Sun 03:56:03 PM 34.6131 -95.0931 51° Northeast 176 203 7,100  Level Fort Worth Center
Sun 03:57:05 PM 34.6453 -95.0431 52° Northeast 179 206 7,100  Level Fort Worth Center
Sun 03:58:07 PM 34.6783 -94.9950 50° Northeast 178 205 7,100  Level Fort Worth Center
Sun 03:59:09 PM 34.7083 -94.9508 50° Northeast 176 203 7,100  Level Fort Worth Center
Sun 04:00:11 PM 34.7400 -94.9025 51° Northeast 174 200 7,100  Level Fort Worth Center
Sun 04:01:13 PM 34.7722 -94.8544 51° Northeast 174 200 7,100 -48 Level Fort Worth Center
Sun 04:02:15 PM 34.8042 -94.8053 52° Northeast 176 203 7,000 -48 Descending Fort Worth Center
Sun 04:03:17 PM 34.8372 -94.7567 50° Northeast 178 205 7,000  Level Fort Worth Center
Sun 04:04:19 PM 34.8689 -94.7086 51° Northeast 175 201 7,000  Level Fort Worth Center
Sun 04:05:21 PM 34.8989 -94.6633 51° Northeast 178 205 7,000  Level Fort Worth Center
Sun 04:06:23 PM 34.9311 -94.6144 51° Northeast 177 204 7,000  Level Fort Worth Center
Sun 04:07:25 PM 34.9636 -94.5656 51° Northeast 178 205 7,000  Level Fort Worth Center
Sun 04:08:27 PM 34.9956 -94.5172 51° Northeast 176 203 7,000  Level Fort Worth Center
Sun 04:09:30 PM 35.0281 -94.4681 51° Northeast 176 203 7,000  Level Fort Worth Center
Sun 04:10:32 PM 35.0592 -94.4200 52° Northeast 173 199 7,000  Level Fort Worth Center
Sun 04:11:31 PM 35.0881 -94.3744 52° Northeast 177 204 7,000  Level Memphis Center
Sun 04:12:33 PM 35.1192 -94.3275 51° Northeast 178 205 7,000  Level Memphis Center
Sun 04:13:35 PM 35.1511 -94.2800 51° Northeast 180 207 7,000  Level Memphis Center
Sun 04:14:37 PM 35.1811 -94.2322 52° Northeast 179 206 7,000  Level Memphis Center
Sun 04:15:39 PM 35.2119 -94.1847 52° Northeast 177 204 7,000  Level Memphis Center
Sun 04:16:41 PM 35.2444 -94.1381 50° Northeast 178 205 7,000  Level Memphis Center
Sun 04:17:43 PM 35.2797 -94.0817 53° Northeast 176 203 7,000  Level Memphis Center
Sun 04:18:45 PM 35.3119 -94.0331 51° Northeast 180 207 7,000  Level Memphis Center
Sun 04:19:47 PM 35.3425 -93.9858 52° Northeast 178 205 7,000  Level Memphis Center
Sun 04:20:49 PM 35.3731 -93.9400 51° Northeast 175 201 7,000  Level Memphis Center
Sun 04:21:51 PM 35.4033 -93.8919 52° Northeast 176 203 7,000  Level Memphis Center
Sun 04:22:53 PM 35.4353 -93.8433 51° Northeast 180 207 7,000  Level Memphis Center
Sun 04:23:55 PM 35.4717 -93.7864 52° Northeast 179 206 7,000  Level Memphis Center
Sun 04:24:57 PM 35.5025 -93.7378 52° Northeast 180 207 7,000  Level Memphis Center
Sun 04:25:59 PM 35.5342 -93.6906 51° Northeast 180 207 7,000  Level Memphis Center
Sun 04:27:01 PM 35.5644 -93.6414 53° Northeast 179 206 7,000  Level Memphis Center
Sun 04:28:03 PM 35.5958 -93.5933 51° Northeast 180 207 7,000  Level Memphis Center
Sun 04:29:05 PM 35.6261 -93.5456 52° Northeast 179 206 7,000  Level Memphis Center
Sun 04:30:07 PM 35.6575 -93.4972 51° Northeast 179 206 7,000  Level Memphis Center
Sun 04:31:09 PM 35.6950 -93.4381 52° Northeast 181 208 7,000  Level Memphis Center
Sun 04:32:11 PM 35.7269 -93.3883 52° Northeast 183 211 7,000  Level Memphis Center
Sun 04:33:13 PM 35.7583 -93.3394 52° Northeast 182 209 7,000  Level Memphis Center
Sun 04:34:15 PM 35.7900 -93.2897 52° Northeast 183 211 7,000  Level Memphis Center
Sun 04:35:17 PM 35.8228 -93.2400 51° Northeast 185 213 7,000  Level Memphis Center
Sun 04:36:19 PM 35.8536 -93.1900 53° Northeast 185 213 7,000  Level Memphis Center
Sun 04:37:21 PM 35.8914 -93.1289 53° Northeast 185 213 7,000  Level Memphis Center
Sun 04:38:23 PM 35.9239 -93.0781 52° Northeast 186 214 7,000  Level Memphis Center
Sun 04:39:25 PM 35.9553 -93.0292 52° Northeast 185 213 7,000  Level Memphis Center
Sun 04:40:27 PM 35.9869 -92.9803 51° Northeast 184 212 7,000  Level Memphis Center
Sun 04:41:29 PM 36.0175 -92.9308 53° Northeast 182 209 7,000  Level Memphis Center
Sun 04:42:31 PM 36.0481 -92.8811 53° Northeast 182 209 7,000  Level Memphis Center
Sun 04:43:34 PM 36.0786 -92.8333 52° Northeast 180 207 7,000  Level Memphis Center
Sun 04:44:36 PM 36.1153 -92.7747 52° Northeast 179 206 7,000  Level Memphis Center
Sun 04:45:38 PM 36.1469 -92.7242 52° Northeast 182 209 7,000  Level Memphis Center
Sun 04:46:40 PM 36.1783 -92.6742 52° Northeast 183 211 7,000  Level Memphis Center
Sun 04:47:42 PM 36.2081 -92.6242 54° Northeast 182 209 7,000  Level Memphis Center
Sun 04:48:44 PM 36.2397 -92.5747 52° Northeast 182 209 7,000  Level Memphis Center
Sun 04:49:46 PM 36.2714 -92.5250 52° Northeast 183 211 7,000  Level Memphis Center
Sun 04:50:48 PM 36.3086 -92.4650 52° Northeast 183 211 7,000  Level Memphis Center
Sun 04:51:50 PM 36.3400 -92.4156 52° Northeast 183 211 7,000  Level Memphis Center
Sun 04:52:52 PM 36.3711 -92.3636 53° Northeast 186 214 7,000  Level Memphis Center
Sun 04:53:54 PM 36.4033 -92.3142 51° Northeast 185 213 7,000  Level Memphis Center
Sun 04:54:56 PM 36.4339 -92.2614 54° Northeast 187 215 7,000  Level Memphis Center
Sun 04:55:58 PM 36.4653 -92.2108 52° Northeast 186 214 7,000  Level Memphis Center
Sun 04:57:00 PM 36.4983 -92.1589 52° Northeast 185 213 7,000  Level Memphis Center
Sun 04:58:02 PM 36.5347 -92.0992 53° Northeast 182 209 7,000 48 Level Memphis Center
Sun 04:59:04 PM 36.5656 -92.0489 53° Northeast 182 209 7,100  Climbing Memphis Center
Sun 05:00:06 PM 36.5967 -91.9994 52° Northeast 182 209 7,000 -48 Descending Memphis Center
Sun 05:01:08 PM 36.6269 -91.9492 53° Northeast 182 209 7,000 -53 Level Memphis Center
Sun 05:01:59 PM 36.6522 -91.9111 50° Northeast 181 208 6,900 -54 Descending Kansas City Center
Sun 05:02:59 PM 36.6822 -91.8606 53° Northeast 181 208 6,900  Level Kansas City Center
Sun 05:04:03 PM 36.7131 -91.8094 53° Northeast 182 209 6,900 48 Level Kansas City Center
Sun 05:05:04 PM 36.7453 -91.7594 51° Northeast 183 211 7,000  Climbing Kansas City Center
Sun 05:06:08 PM 36.7819 -91.7006 52° Northeast 182 209 6,900 -48 Descending Kansas City Center
Sun 05:07:08 PM 36.8108 -91.6475 56° Northeast 182 209 6,900  Level Kansas City Center
Sun 05:08:11 PM 36.8425 -91.5986 51° Northeast 183 211 6,900 48 Level Kansas City Center
Sun 05:09:12 PM 36.8758 -91.5467 51° Northeast 185 213 7,000  Climbing Kansas City Center
Sun 05:10:13 PM 36.9075 -91.4992 50° Northeast 181 208 6,900 -48 Descending Kansas City Center
Sun 05:11:17 PM 36.9397 -91.4472 52° Northeast 185 213 6,900  Level Kansas City Center
Sun 05:12:18 PM 36.9761 -91.3892 52° Northeast 179 206 6,900 48 Level Kansas City Center
Sun 05:13:22 PM 37.0086 -91.3386 51° Northeast 182 209 7,000 48 Climbing Kansas City Center
Sun 05:14:22 PM 37.0397 -91.2875 53° Northeast 184 212 7,000  Level Kansas City Center
Sun 05:15:26 PM 37.0700 -91.2361 54° Northeast 183 211 7,000  Level Kansas City Center
Sun 05:16:26 PM 37.1000 -91.1836 54° Northeast 184 212 7,000  Level Kansas City Center
Sun 05:17:30 PM 37.1319 -91.1306 53° Northeast 186 214 7,000  Level Kansas City Center
Sun 05:18:30 PM 37.1628 -91.0778 54° Northeast 187 215 7,000  Level Kansas City Center
Sun 05:19:32 PM 37.1989 -91.0142 55° Northeast 187 215 7,000  Level Kansas City Center
Sun 05:20:35 PM 37.2306 -90.9611 53° Northeast 187 215 7,000  Level Kansas City Center
Sun 05:21:36 PM 37.2622 -90.9078 53° Northeast 188 216 7,000  Level Kansas City Center
Sun 05:22:40 PM 37.2936 -90.8547 53° Northeast 189 217 7,000  Level Kansas City Center
Sun 05:23:42 PM 37.3250 -90.8011 54° Northeast 190 219 7,000  Level Kansas City Center
Sun 05:24:42 PM 37.3611 -90.7414 53° Northeast 190 219 7,000  Level Kansas City Center
Sun 05:25:46 PM 37.3919 -90.6872 54° Northeast 192 221 7,000  Level Kansas City Center
Sun 05:26:47 PM 37.4242 -90.6344 52° Northeast 191 220 7,000  Level Kansas City Center
Sun 05:27:48 PM 37.4553 -90.5803 54° Northeast 192 221 7,000  Level Kansas City Center
Sun 05:28:51 PM 37.4875 -90.5258 53° Northeast 192 221 7,000  Level Kansas City Center
Sun 05:29:52 PM 37.5261 -90.4583 54° Northeast 197 227 7,000 48 Level Kansas City Center
Sun 05:30:56 PM 37.5583 -90.4033 54° Northeast 197 227 7,100 48 Climbing Kansas City Center
Sun 05:31:57 PM 37.5900 -90.3483 54° Northeast 195 224 7,100  Level Kansas City Center
Sun 05:33:00 PM 37.6217 -90.2947 53° Northeast 194 223 7,100  Level Kansas City Center
Sun 05:34:01 PM 37.6531 -90.2392 54° Northeast 194 223 7,100  Level Kansas City Center
Sun 05:35:04 PM 37.6853 -90.1853 53° Northeast 193 222 7,100  Level Kansas City Center
Sun 05:36:05 PM 37.7239 -90.1178 54° Northeast 196 226 7,100  Level Kansas City Center
Sun 05:37:06 PM 37.7550 -90.0636 54° Northeast 195 224 7,100  Level Kansas City Center
Sun 05:38:09 PM 37.7861 -90.0097 54° Northeast 193 222 7,100  Level Kansas City Center
Sun 05:39:12 PM 37.8181 -89.9553 53° Northeast 192 221 7,100  Level Kansas City Center
Sun 05:40:14 PM 37.8550 -89.8906 54° Northeast 196 226 7,100  Level Kansas City Center
Sun 05:41:14 PM 37.8881 -89.8308 55° Northeast 195 224 7,100  Level Kansas City Center
Sun 05:42:16 PM 37.9197 -89.7753 54° Northeast 194 223 7,100  Level Kansas City Center
Sun 05:43:20 PM 37.9522 -89.7197 53° Northeast 196 226 7,100  Level Kansas City Center
Sun 05:44:21 PM 37.9861 -89.6600 54° Northeast 195 224 7,100  Level Kansas City Center
Sun 05:45:22 PM 38.0172 -89.6050 54° Northeast 195 224 7,100  Level Kansas City Center
Sun 05:46:26 PM 38.0511 -89.5456 54° Northeast 194 223 7,100  Level Kansas City Center
Sun 05:47:28 PM 38.0825 -89.4906 54° Northeast 194 223 7,100 -49 Level Kansas City Center
Sun 05:48:29 PM 38.1139 -89.4328 55° Northeast 195 224 7,000 -48 Descending Kansas City Center
Sun 05:49:33 PM 38.1461 -89.3775 53° Northeast 195 224 7,000  Level Kansas City Center
Sun 05:50:34 PM 38.1772 -89.3217 55° Northeast 194 223 7,000  Level Kansas City Center
Sun 05:51:35 PM 38.2092 -89.2650 54° Northeast 197 227 7,000  Level Kansas City Center
Sun 05:52:37 PM 38.2419 -89.2069 54° Northeast 200 230 7,000  Level Kansas City Center
Sun 05:53:41 PM 38.2800 -89.1400 54° Northeast 197 227 7,000  Level Kansas City Center
Sun 05:54:41 PM 38.3122 -89.0814 55° Northeast 200 230 7,000  Level Kansas City Center
Sun 05:55:45 PM 38.3444 -89.0236 55° Northeast 201 231 7,000  Level Kansas City Center
Sun 05:56:46 PM 38.3792 -88.9619 54° Northeast 199 229 7,000  Level Kansas City Center
Sun 05:57:47 PM 38.4139 -88.9000 54° Northeast 199 229 7,000  Level Kansas City Center
Sun 05:58:51 PM 38.4453 -88.8422 55° Northeast 199 229 7,000  Level Kansas City Center
Sun 05:59:52 PM 38.4792 -88.7803 55° Northeast 198 228 7,000  Level Kansas City Center
Sun 06:00:53 PM 38.5125 -88.7225 54° Northeast 201 231 7,000 48 Level Kansas City Center
Sun 06:01:56 PM 38.5478 -88.6603 54° Northeast 202 232 7,100 48 Climbing Kansas City Center
Sun 06:02:59 PM 38.5758 -88.6089 55° Northeast 200 230 7,100  Level Kansas City Center
Sun 06:03:59 PM 38.6069 -88.5508 56° Northeast 198 228 7,100  Level Kansas City Center
Sun 06:05:02 PM 38.6397 -88.4911 55° Northeast 201 231 7,100  Level Kansas City Center
Sun 06:06:03 PM 38.6794 -88.4200 54° Northeast 204 235 7,100  Level Kansas City Center
Sun 06:07:06 PM 38.7125 -88.3614 54° Northeast 202 232 7,100  Level Kansas City Center
Sun 06:08:06 PM 38.7444 -88.3019 55° Northeast 202 232 7,100  Level Kansas City Center
Sun 06:09:10 PM 38.7758 -88.2431 56° Northeast 200 230 7,100  Level Kansas City Center
Sun 06:10:11 PM 38.8086 -88.1836 55° Northeast 201 231 7,100  Level Kansas City Center
Sun 06:11:12 PM 38.8408 -88.1253 55° Northeast 201 231 7,100  Level Kansas City Center
Sun 06:12:00 PM 38.8653 -88.0792 56° Northeast 200 230 7,100  Level Indianapolis Center
Sun 06:13:02 PM 38.8972 -88.0194 55° Northeast 201 231 7,100  Level Indianapolis Center
Sun 06:14:04 PM 38.9289 -87.9606 55° Northeast 200 230 7,100  Level Indianapolis Center
Sun 06:15:06 PM 38.9619 -87.9019 54° Northeast 201 231 7,100  Level Indianapolis Center
Sun 06:16:07 PM 38.9994 -87.8300 56° Northeast 201 231 7,100  Level Indianapolis Center
Sun 06:17:09 PM 39.0317 -87.7697 55° Northeast 203 234 7,100  Level Indianapolis Center
Sun 06:18:11 PM 39.0642 -87.7108 55° Northeast 202 232 7,100  Level Indianapolis Center
Sun 06:19:13 PM 39.0967 -87.6494 56° Northeast 205 236 7,100  Level Indianapolis Center
Sun 06:20:15 PM 39.1278 -87.5894 56° Northeast 203 234 7,100  Level Indianapolis Center
Sun 06:21:17 PM 39.1597 -87.5303 55° Northeast 202 232 7,100  Level Indianapolis Center
Sun 06:22:19 PM 39.1922 -87.4711 55° Northeast 203 234 7,100  Level Indianapolis Center
Sun 06:23:21 PM 39.2297 -87.4000 56° Northeast 201 231 7,100  Level Indianapolis Center
Sun 06:24:23 PM 39.2611 -87.3392 56° Northeast 204 235 7,100  Level Indianapolis Center
Sun 06:25:25 PM 39.2942 -87.2800 54° Northeast 204 235 7,100  Level Indianapolis Center
Sun 06:26:27 PM 39.3256 -87.2197 56° Northeast 203 234 7,100  Level Indianapolis Center
Sun 06:27:29 PM 39.3572 -87.1597 56° Northeast 203 234 7,100  Level Indianapolis Center
Sun 06:28:31 PM 39.3883 -87.0997 56° Northeast 202 232 7,100  Level Indianapolis Center
Sun 06:29:33 PM 39.4256 -87.0281 56° Northeast 201 231 7,100  Level Indianapolis Center
Sun 06:30:35 PM 39.4569 -86.9700 55° Northeast 199 229 7,100 -48 Level Indianapolis Center
Sun 06:31:37 PM 39.4883 -86.9100 56° Northeast 201 231 7,000 -48 Descending Indianapolis Center
Sun 06:32:39 PM 39.5194 -86.8497 56° Northeast 201 231 7,000  Level Indianapolis Center
Sun 06:33:41 PM 39.5503 -86.7903 56° Northeast 201 231 7,000 -194 Level Indianapolis Center
Sun 06:34:43 PM 39.5892 -86.7169 55° Northeast 205 236 6,600 -387 Descending Indianapolis Center
Sun 06:35:45 PM 39.6272 -86.6578 50° Northeast 213 245 6,200 -387 Descending Indianapolis Center
Sun 06:36:47 PM 39.6681 -86.6031 46° Northeast 212 244 5,800 -339 Descending Indianapolis Center
Sun 06:37:49 PM 39.7097 -86.5525 43° Northeast 207 238 5,500 -387 Descending Indianapolis Center
Sun 06:38:51 PM 39.7497 -86.5003 45° Northeast 204 235 5,000 -528 Descending Indianapolis Center
Sun 06:39:54 PM 39.7889 -86.4531 43° Northeast 198 228 4,400 -480 Descending Indianapolis Center
Sun 06:40:56 PM 39.8297 -86.4042 43° Northeast 197 227 4,000 -339 Descending Indianapolis Center
Sun 06:41:58 PM 39.8703 -86.3397 51° Northeast 199 229 3,700 -387 Descending Indianapolis Center
Sun 06:43:00 PM 39.8864 -86.2678 74° East 203 234 3,200 -387 Descending Indianapolis Center
Sun 06:44:02 PM 39.9000 -86.2036 75° East 204 235 2,900 -290 Descending Indianapolis Center

Login

Don't have an account? Register now (free) for customized features, flight alerts, and more!